Time;durP1;ratioP1;P1;durP2;ratioP2;P2;SDS_P1;SDS_P2;PMS_P1;PMS_P2;Temp;Humidity;BMP_temperature;BMP_pressure;BME280_temperature;BME280_humidity;BME280_pressure;Samples;Min_cycle;Max_cycle;Signal;HPM_P1;HPM_P2
2023/01/23 00:00:37;;;;;;;;;;;;;;;;;;6121416;23;19967;-75
2023/01/23 00:03:02;;;;;;;;;;;;;;;;;;6121573;23;19951;-75
2023/01/23 00:05:28;;;;;;;;;;;;;;;;;;6094779;23;20256;-76
2023/01/23 00:07:54;;;;;;;;;;;;;;;;;;6095319;23;19913;-75
2023/01/23 00:10:19;;;;;;;;;;;;;;;;;;6121253;23;19996;-76
2023/01/23 00:12:47;;;;;;;;;;;;;;;;;;6120891;23;19953;-77
2023/01/23 00:15:13;;;;;;;;;;;;;;;;;;6120729;23;19921;-76
2023/01/23 00:17:43;;;;;;;;;;;;;;;;;;6094885;23;19913;-75
2023/01/23 00:20:09;;;;;;;;;;;;;;;;;;6095295;23;19919;-75
2023/01/23 00:22:35;;;;;;;;;;;;;;;;;;6072654;23;19944;-76
2023/01/23 00:25:00;;;;;;;;;;;;;;;;;;6122625;23;20365;-75
2023/01/23 00:27:26;;;;;;;;;;;;;;;;;;6096296;23;19920;-76
2023/01/23 00:29:52;;;;;;;;;;;;;;;;;;6070334;23;20247;-77
2023/01/23 00:32:18;;;;;;;;;;;;;;;;;;6121051;23;20012;-75
2023/01/23 00:34:43;;;;;;;;;;;;;;;;;;6094942;23;19920;-75
2023/01/23 00:37:09;;;;;;;;;;;;;;;;;;6071178;23;19913;-75
2023/01/23 00:39:34;;;;;;;;;;;;;;;;;;6095339;23;20358;-74
2023/01/23 00:42:00;;;;;;;;;;;;;;;;;;6121423;23;20318;-75
2023/01/23 00:44:26;;;;;;;;;;;;;;;;;;6121479;23;19921;-74
2023/01/23 00:46:52;;;;;;;;;;;;;;;;;;6071460;23;20035;-76
2023/01/23 00:49:18;;;;;;;;;;;;;;;;;;6071216;23;20263;-75
2023/01/23 00:51:44;;;;;;;;;;;;;;;;;;6095383;23;19913;-75
2023/01/23 00:54:09;;;;;;;;;;;;;;;;;;6095316;23;19921;-75
2023/01/23 00:56:35;;;;;;;;;;;;;;;;;;6128151;23;19913;-74
2023/01/23 00:59:01;;;;;;;;;;;;;;;;;;6132170;23;19912;-75
2023/01/23 01:01:27;;;;;;;;;;;;;;;;;;6106941;23;19920;-76
2023/01/23 01:03:53;;;;;;;;;;;;;;;;;;6106884;23;19913;-75
2023/01/23 01:06:19;;;;;;;;;;;;;;;;;;6125623;23;20305;-75
2023/01/23 01:08:44;;;;;;;;;;;;;;;;;;6121457;23;20003;-74
2023/01/23 01:11:10;;;;;;;;;;;;;;;;;;6095398;23;19913;-75
2023/01/23 01:13:36;;;;;;;;;;;;;;;;;;6095332;23;19936;-75
2023/01/23 01:16:01;;;;;;;;;;;;;;;;;;6071415;23;19917;-75
2023/01/23 01:18:27;;;;;;;;;;;;;;;;;;6070849;23;20361;-75
2023/01/23 01:20:53;;;;;;;;;;;;;;;;;;6120923;23;19913;-73
2023/01/23 01:23:18;;;;;;;;;;;;;;;;;;6119818;23;19944;-73
2023/01/23 01:25:44;;;;;;;;;;;;;;;;;;6121717;23;20452;-74
2023/01/23 01:28:10;;;;;;;;;;;;;;;;;;6095873;23;19912;-73
2023/01/23 01:30:35;;;;;;;;;;;;;;;;;;6095821;23;20356;-73
2023/01/23 01:33:01;;;;;;;;;;;;;;;;;;6096172;23;20145;-73
2023/01/23 01:35:27;;;;;;;;;;;;;;;;;;6121368;23;19921;-73
2023/01/23 01:37:52;;;;;;;;;;;;;;;;;;6121836;23;19913;-73
2023/01/23 01:40:18;;;;;;;;;;;;;;;;;;6121563;23;20346;-73
2023/01/23 01:42:44;;;;;;;;;;;;;;;;;;6121830;23;19955;-73
2023/01/23 01:45:10;;;;;;;;;;;;;;;;;;6121346;23;19917;-71
2023/01/23 01:47:35;;;;;;;;;;;;;;;;;;6121605;23;19992;-73
2023/01/23 01:50:01;;;;;;;;;;;;;;;;;;6121669;23;19919;-73
2023/01/23 01:52:26;;;;;;;;;;;;;;;;;;6121367;23;20452;-73
2023/01/23 01:54:52;;;;;;;;;;;;;;;;;;6121728;23;19932;-74
2023/01/23 01:57:18;;;;;;;;;;;;;;;;;;6095543;23;19913;-73
2023/01/23 01:59:43;;;;;;;;;;;;;;;;;;6095740;23;19912;-74
2023/01/23 02:02:09;;;;;;;;;;;;;;;;;;6072005;23;19920;-73
2023/01/23 02:04:35;;;;;;;;;;;;;;;;;;6095912;23;20309;-73
2023/01/23 02:07:00;;;;;;;;;;;;;;;;;;6096037;23;19909;-73
2023/01/23 02:09:26;;;;;;;;;;;;;;;;;;6121932;23;19948;-73
2023/01/23 02:11:53;;;;;;;;;;;;;;;;;;6095820;23;19917;-74
2023/01/23 02:14:19;;;;;;;;;;;;;;;;;;6071584;23;20003;-73
2023/01/23 02:16:49;;;;;;;;;;;;;;;;;;6071842;23;19913;-72
2023/01/23 02:19:15;;;;;;;;;;;;;;;;;;6095633;23;20006;-73
2023/01/23 02:21:40;;;;;;;;;;;;;;;;;;6071583;23;20354;-73
2023/01/23 02:24:07;;;;;;;;;;;;;;;;;;6121784;23;20231;-72
2023/01/23 02:26:32;;;;;;;;;;;;;;;;;;6095352;23;19948;-73
2023/01/23 02:28:58;;;;;;;;;;;;;;;;;;6072057;23;20016;-73
2023/01/23 02:31:29;;;;;;;;;;;;;;;;;;6095335;23;20062;-73
2023/01/23 02:33:54;;;;;;;;;;;;;;;;;;6095806;23;19948;-73
2023/01/23 02:36:20;;;;;;;;;;;;;;;;;;6095387;23;19955;-74
2023/01/23 02:38:47;;;;;;;;;;;;;;;;;;6095609;23;19913;-73
2023/01/23 02:41:13;;;;;;;;;;;;;;;;;;6095306;23;19936;-73
2023/01/23 02:43:39;;;;;;;;;;;;;;;;;;6121285;23;20448;-73
2023/01/23 02:46:06;;;;;;;;;;;;;;;;;;6095330;23;19936;-73
2023/01/23 02:48:31;;;;;;;;;;;;;;;;;;6095377;23;20368;-73
2023/01/23 02:50:58;;;;;;;;;;;;;;;;;;6047551;23;19941;-74
2023/01/23 02:53:24;;;;;;;;;;;;;;;;;;6121040;23;20337;-73
2023/01/23 02:55:51;;;;;;;;;;;;;;;;;;6098037;23;20389;-74
2023/01/23 03:01:03;;;;;;;;;;;;;;;;;;6129953;23;19961;-74
2023/01/23 03:03:29;;;;;;;;;;;;;;;;;;6127417;23;20420;-72
2023/01/23 03:05:55;;;;;;;;;;;;;;;;;;6127856;23;20012;-72
2023/01/23 03:08:21;;;;;;;;;;;;;;;;;;6103895;23;19919;-73
2023/01/23 03:10:46;;;;;;;;;;;;;;;;;;6102670;23;19999;-72
2023/01/23 03:13:12;;;;;;;;;;;;;;;;;;6102027;23;19917;-72
2023/01/23 03:15:40;;;;;;;;;;;;;;;;;;6127526;23;19944;-71
2023/01/23 03:18:06;;;;;;;;;;;;;;;;;;6105570;23;19913;-74
2023/01/23 03:20:32;;;;;;;;;;;;;;;;;;6131132;23;19917;-73
2023/01/23 03:22:57;;;;;;;;;;;;;;;;;;6105491;23;19941;-74
2023/01/23 03:25:23;;;;;;;;;;;;;;;;;;6084238;23;19919;-75
2023/01/23 03:27:48;;;;;;;;;;;;;;;;;;6127921;23;20015;-74
2023/01/23 03:30:20;;;;;;;;;;;;;;;;;;6100576;23;19944;-75
2023/01/23 03:32:47;;;;;;;;;;;;;;;;;;6076414;23;19917;-74
2023/01/23 03:35:15;;;;;;;;;;;;;;;;;;6126135;23;20003;-74
2023/01/23 03:37:41;;;;;;;;;;;;;;;;;;6101873;23;19944;-74
2023/01/23 03:42:52;;;;;;;;;;;;;;;;;;6098942;23;20004;-75
2023/01/23 03:45:24;;;;;;;;;;;;;;;;;;6100937;23;19924;-74
2023/01/23 03:47:50;;;;;;;;;;;;;;;;;;6102582;23;19913;-75
2023/01/23 03:50:16;;;;;;;;;;;;;;;;;;6100463;23;19935;-75
2023/01/23 03:52:43;;;;;;;;;;;;;;;;;;6100177;23;19913;-75
2023/01/23 03:55:09;;;;;;;;;;;;;;;;;;6124889;23;19927;-75
2023/01/23 03:57:35;;;;;;;;;;;;;;;;;;6098418;23;19936;-74
2023/01/23 04:00:20;;;;;;;;;;;;;;;;;;6077891;23;20021;-74
2023/01/23 04:02:56;;;;;;;;;;;;;;;;;;6052897;23;19920;-75
2023/01/23 04:05:22;;;;;;;;;;;;;;;;;;6099142;23;19917;-75
2023/01/23 04:07:47;;;;;;;;;;;;;;;;;;6099023;23;20276;-74
2023/01/23 04:10:13;;;;;;;;;;;;;;;;;;6096960;23;19913;-75
2023/01/23 04:12:40;;;;;;;;;;;;;;;;;;6073425;23;19913;-74
2023/01/23 04:15:06;;;;;;;;;;;;;;;;;;6097397;23;19976;-74
2023/01/23 04:17:32;;;;;;;;;;;;;;;;;;6097276;23;19921;-74
2023/01/23 04:19:57;;;;;;;;;;;;;;;;;;6096739;23;19919;-75
2023/01/23 04:22:23;;;;;;;;;;;;;;;;;;6121684;23;20020;-74
2023/01/23 04:24:49;;;;;;;;;;;;;;;;;;6072633;23;20380;-75
2023/01/23 04:27:15;;;;;;;;;;;;;;;;;;6095832;23;19913;-75
2023/01/23 04:29:41;;;;;;;;;;;;;;;;;;6096873;23;19920;-75
2023/01/23 04:32:08;;;;;;;;;;;;;;;;;;6097199;23;19925;-75
2023/01/23 04:34:37;;;;;;;;;;;;;;;;;;6073766;23;19944;-75
2023/01/23 04:37:03;;;;;;;;;;;;;;;;;;6097833;23;19913;-75
2023/01/23 04:39:31;;;;;;;;;;;;;;;;;;6074047;23;19913;-74
2023/01/23 04:41:57;;;;;;;;;;;;;;;;;;6082128;23;19913;-74
2023/01/23 04:44:35;;;;;;;;;;;;;;;;;;6111434;23;19912;-76
2023/01/23 04:47:19;;;;;;;;;;;;;;;;;;6137966;23;19920;-75
2023/01/23 04:49:46;;;;;;;;;;;;;;;;;;6111929;23;19913;-76
2023/01/23 04:52:12;;;;;;;;;;;;;;;;;;6100734;23;19917;-75
2023/01/23 04:54:42;;;;;;;;;;;;;;;;;;6116389;23;19936;-76
2023/01/23 04:57:08;;;;;;;;;;;;;;;;;;6120548;23;19913;-76
2023/01/23 04:59:34;;;;;;;;;;;;;;;;;;6119986;23;19952;-76
2023/01/23 05:02:01;;;;;;;;;;;;;;;;;;6091910;23;20361;-74
2023/01/23 05:04:30;;;;;;;;;;;;;;;;;;6112714;23;19920;-74
2023/01/23 05:06:56;;;;;;;;;;;;;;;;;;6108722;23;20270;-77
2023/01/23 05:09:22;;;;;;;;;;;;;;;;;;6129956;23;19917;-75
2023/01/23 05:11:50;;;;;;;;;;;;;;;;;;6097838;23;19995;-76
2023/01/23 05:14:16;;;;;;;;;;;;;;;;;;6073459;23;20489;-75
2023/01/23 05:16:44;;;;;;;;;;;;;;;;;;6097400;23;20463;-75
2023/01/23 05:19:16;;;;;;;;;;;;;;;;;;6123459;23;19912;-75
2023/01/23 05:21:42;;;;;;;;;;;;;;;;;;6097523;23;19971;-75
2023/01/23 05:24:13;;;;;;;;;;;;;;;;;;6099042;23;19952;-75
2023/01/23 05:26:39;;;;;;;;;;;;;;;;;;6074104;23;19913;-75
2023/01/23 05:29:05;;;;;;;;;;;;;;;;;;6098405;23;19919;-75
2023/01/23 05:31:34;;;;;;;;;;;;;;;;;;6097423;23;19959;-76
2023/01/23 05:34:35;;;;;;;;;;;;;;;;;;6122310;23;19921;-76
2023/01/23 05:37:02;;;;;;;;;;;;;;;;;;6095835;23;19924;-71
2023/01/23 05:39:29;;;;;;;;;;;;;;;;;;6095121;23;19919;-72
2023/01/23 05:41:55;;;;;;;;;;;;;;;;;;6094671;23;19916;-70
2023/01/23 05:44:45;;;;;;;;;;;;;;;;;;6095367;23;19912;-71
2023/01/23 05:47:19;;;;;;;;;;;;;;;;;;6090257;23;19916;-71
2023/01/23 05:49:45;;;;;;;;;;;;;;;;;;6093970;23;19940;-69
2023/01/23 05:52:11;;;;;;;;;;;;;;;;;;6119741;23;19967;-70
2023/01/23 05:54:36;;;;;;;;;;;;;;;;;;6119398;23;19920;-72
2023/01/23 05:57:02;;;;;;;;;;;;;;;;;;6093948;23;19952;-70
2023/01/23 05:59:46;;;;;;;;;;;;;;;;;;6120162;23;19913;-72
2023/01/23 06:02:28;;;;;;;;;;;;;;;;;;6094035;23;19968;-71
2023/01/23 06:05:14;;;;;;;;;;;;;;;;;;6054646;23;19920;-71
2023/01/23 06:08:12;;;;;;;;;;;;;;;;;;6099364;23;19995;-71
2023/01/23 06:10:37;;;;;;;;;;;;;;;;;;6093749;23;19941;-71
2023/01/23 06:13:03;;;;;;;;;;;;;;;;;;6094302;23;19960;-71
2023/01/23 06:15:29;;;;;;;;;;;;;;;;;;6093557;23;19925;-69
2023/01/23 06:17:56;;;;;;;;;;;;;;;;;;6094142;23;20266;-70
2023/01/23 06:20:23;;;;;;;;;;;;;;;;;;6093559;23;19913;-71
2023/01/23 06:22:49;;;;;;;;;;;;;;;;;;6093780;23;20671;-70
2023/01/23 06:25:17;;;;;;;;;;;;;;;;;;6093546;23;19963;-70
2023/01/23 06:27:42;;;;;;;;;;;;;;;;;;6069450;23;20629;-70
2023/01/23 06:30:08;;;;;;;;;;;;;;;;;;6094095;23;19975;-70
2023/01/23 06:32:42;;;;;;;;;;;;;;;;;;6093420;23;19925;-71
2023/01/23 06:35:09;;;;;;;;;;;;;;;;;;6094261;23;19921;-70
2023/01/23 06:37:38;;;;;;;;;;;;;;;;;;6090912;23;19917;-70
2023/01/23 06:40:04;;;;;;;;;;;;;;;;;;6093998;23;19913;-70
2023/01/23 06:42:30;;;;;;;;;;;;;;;;;;6069274;23;19913;-69
2023/01/23 06:44:57;;;;;;;;;;;;;;;;;;6070123;23;19912;-69
2023/01/23 06:47:24;;;;;;;;;;;;;;;;;;6094718;23;19968;-69
2023/01/23 06:49:58;;;;;;;;;;;;;;;;;;6095052;23;20301;-72
2023/01/23 06:52:26;;;;;;;;;;;;;;;;;;6092987;23;20357;-70
2023/01/23 06:54:52;;;;;;;;;;;;;;;;;;6094343;23;19925;-70
2023/01/23 06:57:18;;;;;;;;;;;;;;;;;;6093658;23;19921;-70
2023/01/23 06:59:45;;;;;;;;;;;;;;;;;;6119037;23;19920;-71
2023/01/23 07:02:13;;;;;;;;;;;;;;;;;;6093104;23;19995;-71
2023/01/23 07:04:44;;;;;;;;;;;;;;;;;;6093000;23;19912;-72
2023/01/23 07:07:10;;;;;;;;;;;;;;;;;;6093064;23;19917;-69
2023/01/23 07:09:36;;;;;;;;;;;;;;;;;;6093020;23;19979;-70
2023/01/23 07:12:07;;;;;;;;;;;;;;;;;;6094148;23;19994;-70
2023/01/23 07:14:34;;;;;;;;;;;;;;;;;;6093053;23;19920;-70
2023/01/23 07:17:00;;;;;;;;;;;;;;;;;;6093323;23;19912;-70
2023/01/23 07:19:26;;;;;;;;;;;;;;;;;;6068907;23;19913;-71
2023/01/23 07:21:52;;;;;;;;;;;;;;;;;;6093266;23;19917;-71
2023/01/23 07:24:18;;;;;;;;;;;;;;;;;;6119105;23;19913;-71
2023/01/23 07:26:44;;;;;;;;;;;;;;;;;;6093305;23;20350;-72
2023/01/23 07:29:09;;;;;;;;;;;;;;;;;;6120767;23;19913;-72
2023/01/23 07:31:35;;;;;;;;;;;;;;;;;;6121303;23;19932;-72
2023/01/23 07:34:01;;;;;;;;;;;;;;;;;;6121380;23;19921;-71
2023/01/23 07:36:26;;;;;;;;;;;;;;;;;;6113102;23;20004;-71
2023/01/23 07:38:52;;;;;;;;;;;;;;;;;;6117594;23;19928;-70
2023/01/23 07:41:17;;;;;;;;;;;;;;;;;;6116871;23;20768;-69
2023/01/23 07:43:43;;;;;;;;;;;;;;;;;;6117518;23;19913;-69
2023/01/23 07:46:09;;;;;;;;;;;;;;;;;;6120798;23;19945;-69
2023/01/23 07:48:34;;;;;;;;;;;;;;;;;;6120787;23;19913;-68
2023/01/23 07:51:00;;;;;;;;;;;;;;;;;;6120437;23;20367;-69
2023/01/23 07:53:26;;;;;;;;;;;;;;;;;;6120445;23;19913;-70
2023/01/23 07:55:52;;;;;;;;;;;;;;;;;;6120995;23;20007;-69
2023/01/23 07:58:18;;;;;;;;;;;;;;;;;;6121110;23;19913;-69
2023/01/23 08:00:44;;;;;;;;;;;;;;;;;;6120613;23;20714;-68
2023/01/23 08:03:10;;;;;;;;;;;;;;;;;;6121177;23;19912;-69
2023/01/23 08:05:36;;;;;;;;;;;;;;;;;;6120606;23;19988;-69
2023/01/23 08:08:02;;;;;;;;;;;;;;;;;;6121230;23;20370;-70
2023/01/23 08:10:27;;;;;;;;;;;;;;;;;;6120803;23;19937;-68
2023/01/23 08:12:53;;;;;;;;;;;;;;;;;;6121110;23;19912;-69
2023/01/23 08:15:18;;;;;;;;;;;;;;;;;;6121213;23;19968;-68
2023/01/23 08:17:44;;;;;;;;;;;;;;;;;;6120476;23;19912;-69
2023/01/23 08:20:09;;;;;;;;;;;;;;;;;;6119369;23;19913;-70
2023/01/23 08:22:39;;;;;;;;;;;;;;;;;;6120155;23;19991;-68
2023/01/23 08:25:05;;;;;;;;;;;;;;;;;;6121081;23;19987;-68
2023/01/23 08:27:30;;;;;;;;;;;;;;;;;;6094875;23;19962;-68
2023/01/23 08:29:56;;;;;;;;;;;;;;;;;;6120554;23;19919;-69
2023/01/23 08:32:21;;;;;;;;;;;;;;;;;;6120447;23;19948;-69
2023/01/23 08:34:47;;;;;;;;;;;;;;;;;;6120518;23;20374;-69
2023/01/23 08:37:13;;;;;;;;;;;;;;;;;;6120933;23;19940;-69
2023/01/23 08:39:38;;;;;;;;;;;;;;;;;;6120921;23;19913;-70
2023/01/23 08:42:04;;;;;;;;;;;;;;;;;;6120820;23;20576;-69
2023/01/23 08:44:31;;;;;;;;;;;;;;;;;;6120286;23;19913;-67
2023/01/23 08:46:57;;;;;;;;;;;;;;;;;;6120190;23;19917;-68
2023/01/23 08:49:22;;;;;;;;;;;;;;;;;;6120568;23;19972;-68
2023/01/23 08:51:48;;;;;;;;;;;;;;;;;;6120374;23;19913;-68
2023/01/23 08:54:14;;;;;;;;;;;;;;;;;;6120533;23;19952;-69
2023/01/23 08:56:40;;;;;;;;;;;;;;;;;;6120147;23;20310;-67
2023/01/23 08:59:05;;;;;;;;;;;;;;;;;;6120292;23;19952;-68
2023/01/23 09:01:31;;;;;;;;;;;;;;;;;;6094094;23;20360;-68
2023/01/23 09:03:57;;;;;;;;;;;;;;;;;;6120789;23;19919;-69
2023/01/23 09:06:22;;;;;;;;;;;;;;;;;;6120478;23;20313;-68
2023/01/23 09:08:48;;;;;;;;;;;;;;;;;;6120588;23;19912;-68
2023/01/23 09:11:14;;;;;;;;;;;;;;;;;;6120397;23;19929;-70
2023/01/23 09:13:39;;;;;;;;;;;;;;;;;;6120196;23;19913;-67
2023/01/23 09:16:07;;;;;;;;;;;;;;;;;;6119842;23;20261;-66
2023/01/23 09:18:32;;;;;;;;;;;;;;;;;;6120196;23;19923;-68
2023/01/23 09:20:58;;;;;;;;;;;;;;;;;;6120376;23;19996;-68
2023/01/23 09:23:24;;;;;;;;;;;;;;;;;;6120309;23;19913;-68
2023/01/23 09:25:49;;;;;;;;;;;;;;;;;;6120174;23;20659;-68
2023/01/23 09:28:15;;;;;;;;;;;;;;;;;;6120207;23;19916;-68
2023/01/23 09:30:41;;;;;;;;;;;;;;;;;;6119527;23;20348;-69
2023/01/23 09:33:07;;;;;;;;;;;;;;;;;;6120270;23;19936;-69
2023/01/23 09:35:32;;;;;;;;;;;;;;;;;;6093593;23;20059;-69
2023/01/23 09:38:03;;;;;;;;;;;;;;;;;;6120123;23;19919;-70
2023/01/23 09:40:28;;;;;;;;;;;;;;;;;;6090894;23;19913;-69
2023/01/23 09:42:54;;;;;;;;;;;;;;;;;;6119705;23;20350;-69
2023/01/23 09:45:20;;;;;;;;;;;;;;;;;;6119587;23;19919;-68
2023/01/23 09:47:45;;;;;;;;;;;;;;;;;;6119397;23;19913;-68
2023/01/23 09:50:11;;;;;;;;;;;;;;;;;;6119570;23;19924;-69
2023/01/23 09:52:37;;;;;;;;;;;;;;;;;;6119125;23;19913;-69
2023/01/23 09:55:02;;;;;;;;;;;;;;;;;;6119149;23;20071;-69
2023/01/23 09:57:28;;;;;;;;;;;;;;;;;;6119209;23;19913;-69
2023/01/23 09:59:54;;;;;;;;;;;;;;;;;;6118991;23;19919;-69
2023/01/23 10:02:20;;;;;;;;;;;;;;;;;;6119725;23;19995;-68
2023/01/23 10:04:45;;;;;;;;;;;;;;;;;;6119306;23;19913;-69
2023/01/23 10:07:11;;;;;;;;;;;;;;;;;;6093616;23;20287;-69
2023/01/23 10:09:36;;;;;;;;;;;;;;;;;;6118837;23;19913;-69
2023/01/23 10:12:02;;;;;;;;;;;;;;;;;;6093776;23;19913;-69
2023/01/23 10:14:28;;;;;;;;;;;;;;;;;;6119173;23;19952;-69
2023/01/23 10:16:53;;;;;;;;;;;;;;;;;;6119433;23;20373;-70
2023/01/23 10:19:19;;;;;;;;;;;;;;;;;;6118778;23;19975;-69
2023/01/23 10:21:44;;;;;;;;;;;;;;;;;;6118493;23;20327;-69
2023/01/23 10:24:10;;;;;;;;;;;;;;;;;;6119089;23;19913;-69
2023/01/23 10:26:36;;;;;;;;;;;;;;;;;;6119271;23;19917;-70
2023/01/23 10:29:02;;;;;;;;;;;;;;;;;;6119265;23;19959;-69
2023/01/23 10:31:28;;;;;;;;;;;;;;;;;;6118950;23;19921;-68
2023/01/23 10:33:53;;;;;;;;;;;;;;;;;;6118862;23;19976;-69
2023/01/23 10:36:19;;;;;;;;;;;;;;;;;;6093462;23;20645;-69
2023/01/23 10:38:45;;;;;;;;;;;;;;;;;;6118580;23;20649;-69
2023/01/23 10:41:14;;;;;;;;;;;;;;;;;;6092428;23;19913;-70
2023/01/23 10:43:39;;;;;;;;;;;;;;;;;;6092269;23;19920;-69
2023/01/23 10:46:05;;;;;;;;;;;;;;;;;;6117860;23;19916;-68
2023/01/23 10:48:31;;;;;;;;;;;;;;;;;;6118456;23;20361;-69
2023/01/23 10:50:56;;;;;;;;;;;;;;;;;;6118356;23;19960;-69
2023/01/23 10:53:23;;;;;;;;;;;;;;;;;;6118961;23;19924;-70
2023/01/23 10:55:49;;;;;;;;;;;;;;;;;;6116387;23;19928;-69
2023/01/23 10:58:15;;;;;;;;;;;;;;;;;;6119118;23;19916;-68
2023/01/23 11:00:40;;;;;;;;;;;;;;;;;;6118652;23;19913;-70
2023/01/23 11:03:06;;;;;;;;;;;;;;;;;;6119411;23;20253;-70
2023/01/23 11:05:31;;;;;;;;;;;;;;;;;;6118988;23;20239;-69
2023/01/23 11:07:57;;;;;;;;;;;;;;;;;;6119242;23;19983;-68
2023/01/23 11:10:23;;;;;;;;;;;;;;;;;;6118988;23;19936;-69
2023/01/23 11:12:48;;;;;;;;;;;;;;;;;;6118726;23;19913;-69
2023/01/23 11:15:14;;;;;;;;;;;;;;;;;;6119121;23;20091;-68
2023/01/23 11:17:40;;;;;;;;;;;;;;;;;;6118696;23;19913;-69
2023/01/23 11:20:05;;;;;;;;;;;;;;;;;;6095060;23;20538;-69
2023/01/23 11:22:31;;;;;;;;;;;;;;;;;;6120772;23;19948;-69
2023/01/23 11:24:57;;;;;;;;;;;;;;;;;;6120430;23;19913;-69
2023/01/23 11:27:25;;;;;;;;;;;;;;;;;;6120831;23;19924;-69
2023/01/23 11:29:51;;;;;;;;;;;;;;;;;;6121589;23;19913;-69
2023/01/23 11:32:17;;;;;;;;;;;;;;;;;;6121060;23;19947;-69
2023/01/23 11:34:42;;;;;;;;;;;;;;;;;;6120989;23;19925;-69
2023/01/23 11:37:08;;;;;;;;;;;;;;;;;;6121559;23;19992;-69
2023/01/23 11:39:33;;;;;;;;;;;;;;;;;;6120948;23;19919;-69
2023/01/23 11:41:59;;;;;;;;;;;;;;;;;;6121336;23;19913;-68
2023/01/23 11:44:25;;;;;;;;;;;;;;;;;;6119388;23;19939;-68
2023/01/23 11:46:51;;;;;;;;;;;;;;;;;;6094715;23;20342;-68
2023/01/23 11:49:16;;;;;;;;;;;;;;;;;;6071402;23;19913;-69
2023/01/23 11:51:42;;;;;;;;;;;;;;;;;;6120620;23;20354;-68
2023/01/23 11:54:07;;;;;;;;;;;;;;;;;;6120992;23;19948;-68
2023/01/23 11:56:33;;;;;;;;;;;;;;;;;;6120799;23;19917;-70
2023/01/23 11:58:59;;;;;;;;;;;;;;;;;;6121380;23;20016;-69
2023/01/23 12:01:24;;;;;;;;;;;;;;;;;;6121203;23;19997;-69
2023/01/23 12:03:50;;;;;;;;;;;;;;;;;;6121212;23;20448;-69
2023/01/23 12:06:16;;;;;;;;;;;;;;;;;;6120859;23;19920;-68
2023/01/23 12:08:41;;;;;;;;;;;;;;;;;;6120671;23;19912;-68
2023/01/23 12:11:11;;;;;;;;;;;;;;;;;;6121227;23;20266;-69
2023/01/23 12:13:36;;;;;;;;;;;;;;;;;;6120909;23;19987;-69
2023/01/23 12:16:02;;;;;;;;;;;;;;;;;;6120998;23;19928;-68
2023/01/23 12:18:28;;;;;;;;;;;;;;;;;;6120746;23;19920;-68
2023/01/23 12:20:54;;;;;;;;;;;;;;;;;;6120881;23;19912;-69
2023/01/23 12:23:19;;;;;;;;;;;;;;;;;;6120879;23;19913;-69
2023/01/23 12:25:45;;;;;;;;;;;;;;;;;;6094453;23;19913;-68
2023/01/23 12:28:10;;;;;;;;;;;;;;;;;;6120517;23;19913;-69
2023/01/23 12:30:37;;;;;;;;;;;;;;;;;;6119940;23;19924;-70
2023/01/23 12:33:03;;;;;;;;;;;;;;;;;;6121010;23;20003;-71
2023/01/23 12:35:29;;;;;;;;;;;;;;;;;;6120367;23;20610;-70
2023/01/23 12:37:54;;;;;;;;;;;;;;;;;;6120927;23;19960;-72
2023/01/23 12:40:21;;;;;;;;;;;;;;;;;;6120907;23;20253;-70
2023/01/23 12:42:46;;;;;;;;;;;;;;;;;;6094368;23;19960;-72
2023/01/23 12:45:12;;;;;;;;;;;;;;;;;;6094698;23;19917;-71
2023/01/23 12:47:38;;;;;;;;;;;;;;;;;;6120385;23;19948;-70
2023/01/23 12:50:03;;;;;;;;;;;;;;;;;;6120933;23;19913;-72
2023/01/23 12:52:29;;;;;;;;;;;;;;;;;;6120322;23;19913;-71
2023/01/23 12:54:55;;;;;;;;;;;;;;;;;;6094643;23;19920;-70
2023/01/23 12:57:39;;;;;;;;;;;;;;;;;;6094952;23;20008;-71
2023/01/23 13:00:05;;;;;;;;;;;;;;;;;;6119450;23;19995;-70
2023/01/23 13:02:30;;;;;;;;;;;;;;;;;;6119982;23;19987;-70
2023/01/23 13:04:56;;;;;;;;;;;;;;;;;;6121073;23;19999;-71
2023/01/23 13:07:21;;;;;;;;;;;;;;;;;;6119926;23;19912;-70
2023/01/23 13:09:47;;;;;;;;;;;;;;;;;;6119991;23;19915;-69
2023/01/23 13:12:17;;;;;;;;;;;;;;;;;;6118353;23;19964;-70
2023/01/23 13:14:43;;;;;;;;;;;;;;;;;;6118553;23;20354;-70
2023/01/23 13:17:09;;;;;;;;;;;;;;;;;;6092431;23;20468;-71
2023/01/23 13:22:19;;;;;;;;;;;;;;;;;;6093068;23;20247;-69
2023/01/23 13:27:29;;;;;;;;;;;;;;;;;;6118457;23;20650;-70
2023/01/23 13:29:57;;;;;;;;;;;;;;;;;;6119261;23;19913;-69
2023/01/23 13:32:23;;;;;;;;;;;;;;;;;;6118873;23;20396;-70
2023/01/23 13:34:49;;;;;;;;;;;;;;;;;;6092490;23;20016;-70
2023/01/23 13:37:14;;;;;;;;;;;;;;;;;;6092862;23;20330;-69
2023/01/23 13:39:40;;;;;;;;;;;;;;;;;;6092604;23;19913;-69
2023/01/23 13:42:06;;;;;;;;;;;;;;;;;;6068199;23;19944;-70
2023/01/23 13:44:40;;;;;;;;;;;;;;;;;;6118486;23;19917;-70
2023/01/23 13:49:49;;;;;;;;;;;;;;;;;;6118542;23;20366;-69
2023/01/23 13:49:52;;;;;;;;;;;;;;;;;;6118389;23;20401;-71
2023/01/23 13:57:46;;;;;;;;;;;;;;;;;;6091848;23;19960;-70
2023/01/23 14:00:12;;;;;;;;;;;;;;;;;;6092925;23;19921;-71
2023/01/23 14:05:23;;;;;;;;;;;;;;;;;;6118575;23;19992;-70
2023/01/23 14:07:51;;;;;;;;;;;;;;;;;;6116924;23;20447;-70
2023/01/23 14:10:18;;;;;;;;;;;;;;;;;;6068859;23;19912;-70
2023/01/23 14:12:43;;;;;;;;;;;;;;;;;;6119033;23;20007;-69
2023/01/23 14:17:55;;;;;;;;;;;;;;;;;;6118670;23;19944;-70
2023/01/23 14:20:20;;;;;;;;;;;;;;;;;;6118805;23;19917;-70
2023/01/23 14:22:46;;;;;;;;;;;;;;;;;;6118020;23;19941;-70
2023/01/23 14:25:12;;;;;;;;;;;;;;;;;;6093074;23;19913;-72
2023/01/23 14:27:38;;;;;;;;;;;;;;;;;;6093248;23;20318;-71
2023/01/23 14:30:04;;;;;;;;;;;;;;;;;;6120152;23;20009;-70
2023/01/23 14:32:29;;;;;;;;;;;;;;;;;;6118445;23;19999;-69
2023/01/23 14:34:55;;;;;;;;;;;;;;;;;;6119698;23;19920;-69
2023/01/23 14:37:21;;;;;;;;;;;;;;;;;;6094231;23;19917;-70
2023/01/23 14:39:46;;;;;;;;;;;;;;;;;;6119711;23;19913;-70
2023/01/23 14:42:12;;;;;;;;;;;;;;;;;;6093720;23;19999;-70
2023/01/23 14:44:38;;;;;;;;;;;;;;;;;;6093886;23;19916;-71
2023/01/23 14:47:04;;;;;;;;;;;;;;;;;;6069742;23;19912;-70
2023/01/23 14:49:29;;;;;;;;;;;;;;;;;;6119582;23;19913;-70
2023/01/23 14:51:55;;;;;;;;;;;;;;;;;;6119532;23;19916;-70
2023/01/23 14:54:21;;;;;;;;;;;;;;;;;;6093871;23;19924;-69
2023/01/23 14:56:46;;;;;;;;;;;;;;;;;;6117772;23;20666;-70
2023/01/23 14:59:12;;;;;;;;;;;;;;;;;;6119323;23;19913;-70
2023/01/23 15:01:37;;;;;;;;;;;;;;;;;;6117870;23;19920;-71
2023/01/23 15:04:03;;;;;;;;;;;;;;;;;;6118876;23;19919;-70
2023/01/23 15:06:28;;;;;;;;;;;;;;;;;;6118882;23;20779;-70
2023/01/23 15:08:54;;;;;;;;;;;;;;;;;;6119751;23;19913;-71
2023/01/23 15:11:20;;;;;;;;;;;;;;;;;;6119703;23;19912;-70
2023/01/23 15:13:46;;;;;;;;;;;;;;;;;;6118627;23;20405;-71
2023/01/23 15:16:11;;;;;;;;;;;;;;;;;;6119032;23;19921;-71
2023/01/23 15:18:37;;;;;;;;;;;;;;;;;;6119051;23;19913;-70
2023/01/23 15:21:03;;;;;;;;;;;;;;;;;;6119591;23;19916;-70
2023/01/23 15:23:30;;;;;;;;;;;;;;;;;;6118826;23;19945;-70
2023/01/23 15:25:55;;;;;;;;;;;;;;;;;;6118148;23;19960;-69
2023/01/23 15:28:21;;;;;;;;;;;;;;;;;;6119518;23;19913;-69
2023/01/23 15:30:47;;;;;;;;;;;;;;;;;;6094588;23;19945;-69
2023/01/23 15:33:13;;;;;;;;;;;;;;;;;;6119905;23;20358;-69
2023/01/23 15:35:39;;;;;;;;;;;;;;;;;;6119270;23;19986;-68
2023/01/23 15:38:05;;;;;;;;;;;;;;;;;;6119459;23;19937;-68
2023/01/23 15:40:30;;;;;;;;;;;;;;;;;;6119283;23;20275;-68
2023/01/23 15:42:56;;;;;;;;;;;;;;;;;;6118843;23;19920;-69
2023/01/23 15:45:22;;;;;;;;;;;;;;;;;;6119054;23;19928;-69
2023/01/23 15:47:47;;;;;;;;;;;;;;;;;;6118181;23;19913;-71
2023/01/23 15:50:13;;;;;;;;;;;;;;;;;;6118576;23;20353;-70
2023/01/23 15:52:38;;;;;;;;;;;;;;;;;;6092656;23;19909;-70
2023/01/23 15:55:04;;;;;;;;;;;;;;;;;;6119691;23;19920;-70
2023/01/23 15:57:29;;;;;;;;;;;;;;;;;;6119185;23;20258;-69
2023/01/23 15:59:55;;;;;;;;;;;;;;;;;;6093941;23;19948;-70
2023/01/23 16:02:21;;;;;;;;;;;;;;;;;;6119383;23;19959;-70
2023/01/23 16:04:46;;;;;;;;;;;;;;;;;;6119530;23;19913;-70
2023/01/23 16:07:12;;;;;;;;;;;;;;;;;;6121085;23;19920;-70
2023/01/23 16:09:39;;;;;;;;;;;;;;;;;;6120505;23;19996;-69
2023/01/23 16:12:05;;;;;;;;;;;;;;;;;;6095339;23;19917;-68
2023/01/23 16:14:30;;;;;;;;;;;;;;;;;;6120824;23;19927;-70
2023/01/23 16:16:56;;;;;;;;;;;;;;;;;;6121080;23;19996;-70
2023/01/23 16:19:22;;;;;;;;;;;;;;;;;;6121599;23;19935;-70
2023/01/23 16:21:47;;;;;;;;;;;;;;;;;;6120924;23;19913;-69
2023/01/23 16:24:13;;;;;;;;;;;;;;;;;;6095223;23;19964;-69
2023/01/23 16:26:39;;;;;;;;;;;;;;;;;;6120248;23;19913;-69
2023/01/23 16:29:04;;;;;;;;;;;;;;;;;;6121117;23;19916;-69
2023/01/23 16:31:30;;;;;;;;;;;;;;;;;;6120885;23;19947;-69
2023/01/23 16:33:57;;;;;;;;;;;;;;;;;;6121206;23;19924;-69
2023/01/23 16:36:22;;;;;;;;;;;;;;;;;;6119404;23;19980;-69
2023/01/23 16:38:48;;;;;;;;;;;;;;;;;;6120169;23;19909;-69
2023/01/23 16:41:14;;;;;;;;;;;;;;;;;;6121235;23;20434;-70
2023/01/23 16:43:39;;;;;;;;;;;;;;;;;;6118589;23;19948;-70
2023/01/23 16:46:05;;;;;;;;;;;;;;;;;;6093929;23;19920;-71
2023/01/23 16:48:30;;;;;;;;;;;;;;;;;;6094093;23;19912;-71
2023/01/23 16:50:56;;;;;;;;;;;;;;;;;;6094308;23;19976;-71
2023/01/23 16:53:22;;;;;;;;;;;;;;;;;;6120482;23;19913;-71
2023/01/23 16:55:47;;;;;;;;;;;;;;;;;;6094016;23;19928;-71
2023/01/23 16:58:13;;;;;;;;;;;;;;;;;;6119876;23;19971;-71
2023/01/23 17:00:39;;;;;;;;;;;;;;;;;;6119959;23;19913;-72
2023/01/23 17:03:04;;;;;;;;;;;;;;;;;;6094022;23;19955;-71